Time;durP1;ratioP1;P1;durP2;ratioP2;P2;SDS_P1;SDS_P2;PMS_P1;PMS_P2;Temp;Humidity;BMP_temperature;BMP_pressure;BME280_temperature;BME280_humidity;BME280_pressure;Samples;Min_cycle;Max_cycle;Signal;HPM_P1;HPM_P2
2022/02/25 00:00:26;;;;;;;14.75;2.20;;;4.30;99.90;;;;;;5053329;28;20048;-53
2022/02/25 00:02:52;;;;;;;10.68;2.00;;;4.30;99.90;;;;;;5052918;28;20086;-52
2022/02/25 00:05:18;;;;;;;8.70;1.88;;;4.40;99.90;;;;;;5053472;28;20048;-53
2022/02/25 00:07:43;;;;;;;13.48;2.03;;;4.40;99.90;;;;;;5037178;28;20460;-52
2022/02/25 00:10:10;;;;;;;13.05;2.22;;;4.40;99.90;;;;;;5033639;28;20041;-53
2022/02/25 00:12:36;;;;;;;7.32;1.73;;;4.40;99.90;;;;;;5015675;28;20073;-51
2022/02/25 00:15:02;;;;;;;17.58;2.55;;;4.50;99.90;;;;;;5043897;28;20079;-52
2022/02/25 00:17:28;;;;;;;9.38;1.80;;;4.50;99.90;;;;;;5052993;28;20525;-54
2022/02/25 00:19:53;;;;;;;10.50;1.90;;;4.40;99.90;;;;;;5053372;28;20600;-52
2022/02/25 00:22:19;;;;;;;9.98;2.15;;;4.50;99.90;;;;;;5053356;28;20508;-54
2022/02/25 00:24:44;;;;;;;10.73;1.77;;;4.50;99.90;;;;;;5053166;28;20406;-53
2022/02/25 00:27:10;;;;;;;8.98;1.90;;;4.50;99.90;;;;;;5052539;28;20041;-55
2022/02/25 00:29:36;;;;;;;11.82;2.05;;;4.50;99.90;;;;;;5053193;28;20029;-52
2022/02/25 00:32:01;;;;;;;7.80;1.63;;;4.50;99.90;;;;;;5052732;28;20448;-52
2022/02/25 00:34:27;;;;;;;11.32;2.63;;;4.60;99.90;;;;;;5053003;28;20044;-54
2022/02/25 00:36:52;;;;;;;7.88;1.48;;;4.60;99.90;;;;;;5051702;28;20084;-50
2022/02/25 00:39:18;;;;;;;6.88;1.60;;;4.70;99.90;;;;;;5052841;28;20048;-53
2022/02/25 00:41:43;;;;;;;8.85;1.85;;;4.60;99.90;;;;;;5052891;28;20098;-50
2022/02/25 00:44:09;;;;;;;9.57;1.77;;;4.60;99.90;;;;;;5051122;28;20088;-54
2022/02/25 00:46:34;;;;;;;11.40;2.30;;;4.60;99.90;;;;;;5052666;28;20051;-52
2022/02/25 00:49:00;;;;;;;13.07;2.20;;;4.60;99.90;;;;;;5052455;28;20049;-53
2022/02/25 00:51:25;;;;;;;5.90;2.28;;;4.60;99.90;;;;;;5052777;28;20076;-52
2022/02/25 00:53:51;;;;;;;11.82;2.20;;;4.60;99.90;;;;;;5052447;28;20040;-52
2022/02/25 00:56:17;;;;;;;13.20;2.65;;;4.60;99.90;;;;;;5052364;28;20041;-53
2022/02/25 00:58:42;;;;;;;9.02;2.03;;;4.60;99.90;;;;;;5050988;28;20037;-53
2022/02/25 01:01:08;;;;;;;6.40;2.03;;;4.60;99.90;;;;;;5052336;28;20047;-50
2022/02/25 01:03:35;;;;;;;7.70;2.00;;;4.50;99.90;;;;;;5052172;28;20049;-53
2022/02/25 01:06:00;;;;;;;9.52;1.95;;;4.40;99.90;;;;;;5052386;28;20455;-53
2022/02/25 01:08:26;;;;;;;10.05;2.05;;;4.30;99.90;;;;;;5051945;28;20041;-52
2022/02/25 01:10:52;;;;;;;8.50;2.00;;;4.20;99.90;;;;;;5051985;28;20470;-53
2022/02/25 01:13:17;;;;;;;11.18;2.03;;;4.10;99.90;;;;;;5032682;28;20120;-55
2022/02/25 01:15:43;;;;;;;9.88;1.83;;;4.10;99.90;;;;;;5032125;28;20033;-50
2022/02/25 01:18:08;;;;;;;10.02;1.80;;;4.00;99.90;;;;;;5032134;28;20060;-53
2022/02/25 01:20:34;;;;;;;10.27;2.20;;;4.00;99.90;;;;;;5030885;28;20082;-51
2022/02/25 01:22:59;;;;;;;8.20;1.98;;;4.10;99.90;;;;;;5032193;28;20044;-53
2022/02/25 01:25:25;;;;;;;15.10;2.10;;;4.10;99.90;;;;;;5049729;28;20041;-52
2022/02/25 01:27:51;;;;;;;12.02;2.20;;;4.10;99.90;;;;;;5050044;28;20091;-53
2022/02/25 01:30:16;;;;;;;11.35;2.00;;;4.10;99.90;;;;;;5051464;28;20548;-50
2022/02/25 01:32:42;;;;;;;8.95;2.10;;;4.10;99.90;;;;;;5051691;28;20055;-54
2022/02/25 01:35:08;;;;;;;7.18;1.60;;;4.10;99.90;;;;;;5050297;28;20088;-52
2022/02/25 01:37:34;;;;;;;9.32;1.92;;;4.10;99.90;;;;;;5051607;28;20585;-51
2022/02/25 01:39:59;;;;;;;8.18;1.98;;;4.10;99.90;;;;;;5051394;28;20037;-51
2022/02/25 01:42:25;;;;;;;10.57;2.70;;;4.10;99.90;;;;;;5051551;28;20079;-52
2022/02/25 01:44:51;;;;;;;11.80;2.10;;;4.10;99.90;;;;;;5051615;28;20032;-51
2022/02/25 01:47:17;;;;;;;10.95;2.45;;;4.10;99.90;;;;;;5051704;28;20055;-50
2022/02/25 01:49:45;;;;;;;13.10;2.38;;;4.10;99.90;;;;;;5051721;28;20087;-52
2022/02/25 01:52:16;;;;;;;9.98;2.03;;;4.10;99.90;;;;;;5050292;28;20040;-54
2022/02/25 01:54:43;;;;;;;12.20;2.25;;;4.00;99.90;;;;;;5051336;28;20091;-53
2022/02/25 01:57:11;;;;;;;10.43;1.98;;;4.00;99.90;;;;;;5050791;28;20044;-53
2022/02/25 01:59:37;;;;;;;9.27;2.40;;;4.00;99.90;;;;;;5051323;28;20574;-54
2022/02/25 02:02:06;;;;;;;10.85;2.00;;;4.00;99.90;;;;;;5051586;28;20171;-53
2022/02/25 02:04:33;;;;;;;11.23;2.20;;;3.90;99.90;;;;;;5051556;28;20037;-53
2022/02/25 02:06:59;;;;;;;8.32;1.85;;;3.90;99.90;;;;;;5051310;28;20094;-50
2022/02/25 02:09:25;;;;;;;10.65;1.90;;;3.90;99.90;;;;;;5051265;28;20044;-51
2022/02/25 02:11:53;;;;;;;16.52;2.20;;;3.90;99.90;;;;;;5050374;28;20393;-54
2022/02/25 02:14:23;;;;;;;11.82;2.13;;;3.80;99.90;;;;;;5051265;28;20045;-51
2022/02/25 02:16:51;;;;;;;11.10;1.98;;;3.80;99.90;;;;;;5051571;28;20037;-51
2022/02/25 02:19:17;;;;;;;11.07;2.15;;;3.70;99.90;;;;;;5051264;28;20441;-51
2022/02/25 02:21:50;;;;;;;8.25;1.95;;;3.80;99.90;;;;;;5051621;28;20403;-53
2022/02/25 02:24:17;;;;;;;12.55;2.55;;;3.70;99.90;;;;;;5050726;28;20033;-51
2022/02/25 02:26:43;;;;;;;8.65;1.88;;;3.70;99.90;;;;;;5050911;28;20087;-52
2022/02/25 02:29:10;;;;;;;10.05;2.13;;;3.70;99.90;;;;;;5051401;28;20129;-53
2022/02/25 02:31:37;;;;;;;8.45;1.73;;;3.60;99.90;;;;;;5051271;28;20033;-52
2022/02/25 02:34:04;;;;;;;10.23;1.67;;;3.60;99.90;;;;;;5051309;28;20115;-53
2022/02/25 02:36:30;;;;;;;12.05;1.95;;;3.50;99.90;;;;;;5050690;28;20072;-50
2022/02/25 02:38:56;;;;;;;9.35;1.73;;;3.50;99.90;;;;;;5047082;28;20072;-55
2022/02/25 02:41:21;;;;;;;7.18;1.85;;;3.40;99.90;;;;;;5051058;28;20513;-50
2022/02/25 02:43:47;;;;;;;10.25;1.92;;;3.40;99.90;;;;;;5050745;28;20041;-50
2022/02/25 02:46:13;;;;;;;12.50;2.35;;;3.50;99.90;;;;;;5050811;28;20069;-52
2022/02/25 02:48:40;;;;;;;10.85;1.90;;;3.40;99.90;;;;;;5050580;28;20059;-54
2022/02/25 02:51:06;;;;;;;11.48;2.45;;;3.30;99.90;;;;;;5053069;28;20037;-52
2022/02/25 02:53:32;;;;;;;11.30;2.40;;;3.40;99.90;;;;;;5020571;28;20251;-52
2022/02/25 02:55:58;;;;;;;11.85;2.42;;;3.30;99.90;;;;;;5054534;28;20124;-53
2022/02/25 02:58:23;;;;;;;15.35;2.28;;;3.20;99.90;;;;;;5053733;28;20125;-52
2022/02/25 03:00:50;;;;;;;10.93;2.15;;;3.20;99.90;;;;;;5054787;28;20041;-52
2022/02/25 03:03:16;;;;;;;11.02;2.05;;;3.20;99.90;;;;;;5054315;28;20060;-53
2022/02/25 03:05:43;;;;;;;13.30;2.15;;;3.20;99.90;;;;;;5053065;28;20493;-53
2022/02/25 03:08:09;;;;;;;11.32;1.77;;;3.10;99.90;;;;;;5036117;28;20068;-53
2022/02/25 03:10:37;;;;;;;13.95;1.92;;;3.10;99.90;;;;;;5054499;28;20041;-52
2022/02/25 03:13:04;;;;;;;16.25;2.05;;;3.00;99.90;;;;;;5036942;28;20429;-53
2022/02/25 03:15:30;;;;;;;17.30;2.53;;;3.10;99.90;;;;;;5054728;28;20124;-53
2022/02/25 03:17:56;;;;;;;10.27;2.30;;;3.10;99.90;;;;;;5054183;28;20072;-53
2022/02/25 03:20:22;;;;;;;17.20;2.42;;;3.10;99.90;;;;;;5054337;28;20480;-52
2022/02/25 03:22:49;;;;;;;15.18;2.10;;;3.00;99.90;;;;;;5054295;28;20047;-53
2022/02/25 03:25:16;;;;;;;11.02;2.65;;;3.00;99.90;;;;;;5054163;28;20041;-52
2022/02/25 03:27:42;;;;;;;12.40;2.70;;;3.10;99.90;;;;;;5054078;28;20106;-55
2022/02/25 03:30:09;;;;;;;13.48;1.98;;;3.10;99.90;;;;;;5054094;28;20037;-51
2022/02/25 03:32:35;;;;;;;10.23;2.38;;;3.00;99.90;;;;;;5053786;28;20098;-53
2022/02/25 03:35:56;;;;;;;15.18;2.50;;;3.00;99.90;;;;;;5059267;28;20055;-51
2022/02/25 03:38:36;;;;;;;10.20;2.15;;;3.00;99.90;;;;;;5032420;28;20052;-50
2022/02/25 03:41:02;;;;;;;21.98;2.67;;;3.10;99.90;;;;;;5034183;28;20038;-50
2022/02/25 03:43:27;;;;;;;15.63;2.65;;;3.00;99.90;;;;;;5034469;28;20051;-51
2022/02/25 03:45:53;;;;;;;12.07;2.13;;;3.00;99.90;;;;;;5034369;28;20167;-51
2022/02/25 03:48:19;;;;;;;14.43;2.33;;;3.10;99.90;;;;;;5045651;28;20516;-50
2022/02/25 03:50:46;;;;;;;13.30;2.55;;;3.00;99.90;;;;;;5052229;28;20044;-50
2022/02/25 03:53:11;;;;;;;14.25;2.17;;;3.00;99.90;;;;;;5036002;28;20114;-50
2022/02/25 03:55:37;;;;;;;12.82;2.30;;;3.00;99.90;;;;;;5053788;28;20041;-51
2022/02/25 03:58:04;;;;;;;17.27;2.50;;;3.00;99.90;;;;;;5053921;28;20096;-50
2022/02/25 04:00:29;;;;;;;13.77;2.35;;;3.00;99.90;;;;;;5053141;28;20128;-52
2022/02/25 04:02:56;;;;;;;13.07;2.25;;;3.00;99.90;;;;;;5052842;28;20123;-49
2022/02/25 04:05:22;;;;;;;14.93;2.25;;;3.00;99.90;;;;;;5053286;28;20072;-52
2022/02/25 04:07:50;;;;;;;11.52;2.10;;;3.00;99.90;;;;;;5052020;28;20107;-52
2022/02/25 04:10:16;;;;;;;10.75;2.10;;;3.00;99.90;;;;;;5052253;28;20045;-49
2022/02/25 04:12:41;;;;;;;12.38;2.30;;;3.00;99.90;;;;;;5053432;28;20040;-51
2022/02/25 04:15:08;;;;;;;11.40;2.20;;;3.00;99.90;;;;;;5053157;28;20524;-51
2022/02/25 04:17:34;;;;;;;11.40;2.03;;;3.00;99.90;;;;;;5052642;28;20037;-50
2022/02/25 04:19:59;;;;;;;17.02;2.42;;;3.00;99.90;;;;;;5053396;28;20046;-50
2022/02/25 04:22:25;;;;;;;14.77;2.08;;;3.00;99.90;;;;;;5053080;28;20086;-53
2022/02/25 04:24:51;;;;;;;12.30;2.40;;;3.00;99.90;;;;;;5051935;28;20033;-51
2022/02/25 04:27:17;;;;;;;15.55;2.40;;;3.00;99.90;;;;;;5052791;28;20037;-52
2022/02/25 04:29:44;;;;;;;15.50;2.58;;;3.10;99.90;;;;;;5052684;28;20048;-50
2022/02/25 04:32:09;;;;;;;18.35;2.85;;;3.10;99.90;;;;;;5052459;28;20041;-53
2022/02/25 04:34:35;;;;;;;9.90;2.10;;;3.10;99.90;;;;;;5053075;28;20044;-52
2022/02/25 04:37:00;;;;;;;12.77;2.50;;;3.10;99.90;;;;;;5052834;28;20041;-50
2022/02/25 04:39:26;;;;;;;9.60;2.10;;;3.10;99.90;;;;;;5052979;28;20044;-50
2022/02/25 04:41:52;;;;;;;12.93;2.03;;;3.00;99.90;;;;;;5051624;28;20086;-51
2022/02/25 04:44:17;;;;;;;15.05;2.33;;;3.10;99.90;;;;;;5052623;28;20044;-54
2022/02/25 04:46:43;;;;;;;15.90;2.90;;;3.10;99.90;;;;;;5052172;28;20032;-50
2022/02/25 04:49:09;;;;;;;15.57;2.72;;;3.10;99.90;;;;;;5051143;28;20044;-50
2022/02/25 04:51:35;;;;;;;12.60;2.53;;;3.10;99.90;;;;;;5052782;28;20048;-50
2022/02/25 04:54:01;;;;;;;12.18;2.53;;;3.10;99.90;;;;;;5052634;28;20037;-51
2022/02/25 04:56:26;;;;;;;11.35;2.40;;;3.20;99.90;;;;;;5052314;28;20413;-50
2022/02/25 04:58:52;;;;;;;13.57;1.70;;;3.10;99.90;;;;;;5052382;28;20086;-50
2022/02/25 05:01:18;;;;;;;11.38;2.25;;;3.10;99.90;;;;;;5047850;28;20084;-52
2022/02/25 05:03:44;;;;;;;10.32;2.35;;;3.10;99.90;;;;;;5051286;28;20420;-52
2022/02/25 05:06:09;;;;;;;14.25;2.20;;;3.00;99.90;;;;;;5048991;28;20044;-52
2022/02/25 05:08:35;;;;;;;16.92;2.38;;;3.00;99.90;;;;;;5032270;28;20052;-50
2022/02/25 05:11:01;;;;;;;15.93;2.55;;;3.00;99.90;;;;;;5042817;28;20036;-50
2022/02/25 05:13:26;;;;;;;15.95;2.22;;;2.90;99.90;;;;;;5038196;28;20041;-51
2022/02/25 05:21:23;;;;;;;9.32;2.70;;;3.00;99.90;;;;;;5050388;28;20048;-50
2022/02/25 05:23:48;;;;;;;17.77;2.55;;;3.00;99.90;;;;;;5041429;28;20128;-50
2022/02/25 05:26:14;;;;;;;13.35;2.33;;;3.00;99.90;;;;;;5048243;28;20167;-50
2022/02/25 05:28:39;;;;;;;14.85;2.53;;;3.00;99.90;;;;;;5033802;28;20547;-53
2022/02/25 05:31:06;;;;;;;12.70;2.33;;;3.00;99.90;;;;;;5051889;28;20033;-52
2022/02/25 05:33:32;;;;;;;15.50;2.55;;;3.00;99.90;;;;;;5050375;28;20037;-49
2022/02/25 05:35:58;;;;;;;20.17;3.13;;;3.00;99.90;;;;;;5051717;28;20041;-53
2022/02/25 05:38:23;;;;;;;18.98;2.47;;;3.00;99.90;;;;;;5050279;28;20114;-50
2022/02/25 05:40:49;;;;;;;11.73;2.30;;;3.10;99.90;;;;;;5035001;28;20091;-52
2022/02/25 05:43:15;;;;;;;14.77;2.53;;;3.10;99.90;;;;;;5042691;28;20045;-51
2022/02/25 05:45:41;;;;;;;13.98;2.47;;;3.10;99.90;;;;;;5051551;28;20041;-50
2022/02/25 05:48:06;;;;;;;15.90;2.58;;;3.20;99.90;;;;;;5051453;28;20051;-51
2022/02/25 05:50:32;;;;;;;16.20;3.00;;;3.20;99.90;;;;;;5033476;28;20406;-50
2022/02/25 05:52:58;;;;;;;22.35;2.90;;;3.20;99.90;;;;;;5050310;28;20045;-50
2022/02/25 05:55:24;;;;;;;16.30;3.35;;;3.30;99.90;;;;;;5051323;28;20033;-50
2022/02/25 05:57:51;;;;;;;16.23;3.30;;;3.40;99.90;;;;;;5034840;28;20037;-50
2022/02/25 06:00:18;;;;;;;12.70;2.40;;;3.30;99.90;;;;;;5051311;28;20486;-50
2022/02/25 06:02:45;;;;;;;17.08;2.78;;;3.30;99.90;;;;;;5051311;28;20410;-50
2022/02/25 06:05:11;;;;;;;12.88;2.60;;;3.30;99.90;;;;;;5051266;28;20048;-53
2022/02/25 06:07:38;;;;;;;14.25;2.83;;;3.30;99.90;;;;;;5016933;28;20122;-50
2022/02/25 06:10:04;;;;;;;11.23;2.22;;;3.30;99.90;;;;;;5051567;28;20139;-51
2022/02/25 06:12:30;;;;;;;11.60;2.33;;;3.30;99.90;;;;;;5051575;28;20064;-52
2022/02/25 06:14:55;;;;;;;13.60;2.47;;;3.40;99.90;;;;;;5050975;28;20032;-53
2022/02/25 06:17:21;;;;;;;14.10;2.80;;;3.40;99.90;;;;;;5051191;28;20037;-50
2022/02/25 06:19:46;;;;;;;14.98;2.55;;;3.40;99.90;;;;;;5051064;28;20037;-50
2022/02/25 06:22:12;;;;;;;21.65;3.10;;;3.30;99.90;;;;;;5051093;28;20071;-50
2022/02/25 06:24:38;;;;;;;12.88;2.63;;;3.30;99.90;;;;;;5052953;28;20048;-50
2022/02/25 06:27:04;;;;;;;11.48;2.55;;;3.40;99.90;;;;;;5055214;28;20032;-49
2022/02/25 06:29:30;;;;;;;18.75;2.67;;;3.30;99.90;;;;;;5053949;28;20064;-51
2022/02/25 06:31:55;;;;;;;16.58;2.78;;;3.30;99.90;;;;;;5055334;28;20544;-51
2022/02/25 06:34:21;;;;;;;15.57;2.85;;;3.40;99.90;;;;;;5052112;28;20314;-53
2022/02/25 06:36:46;;;;;;;15.82;3.17;;;3.40;99.90;;;;;;5043389;28;20402;-53
2022/02/25 06:39:13;;;;;;;18.42;3.17;;;3.40;99.90;;;;;;5048722;28;20033;-49
2022/02/25 06:41:39;;;;;;;20.35;3.10;;;3.30;99.90;;;;;;5050610;28;20044;-52
2022/02/25 06:44:05;;;;;;;23.33;3.70;;;3.30;99.90;;;;;;5055944;28;20040;-52
2022/02/25 06:46:30;;;;;;;14.35;3.45;;;3.30;99.90;;;;;;5052089;28;20037;-55
2022/02/25 06:48:56;;;;;;;15.55;3.67;;;3.30;99.90;;;;;;5061697;28;20481;-55
2022/02/25 06:51:22;;;;;;;23.17;3.45;;;3.40;99.90;;;;;;5066014;28;20037;-51
2022/02/25 06:53:47;;;;;;;18.48;3.67;;;3.30;99.90;;;;;;5036522;28;20444;-55
2022/02/25 06:56:13;;;;;;;14.52;3.88;;;3.30;99.90;;;;;;5054918;28;20037;-55
2022/02/25 06:58:39;;;;;;;17.35;3.45;;;3.30;99.90;;;;;;5048390;28;20045;-52
2022/02/25 07:01:05;;;;;;;16.60;3.53;;;3.40;99.90;;;;;;5050323;28;20047;-54
2022/02/25 07:03:31;;;;;;;21.30;4.32;;;3.40;99.90;;;;;;5054505;28;20043;-52
2022/02/25 07:05:57;;;;;;;16.40;3.72;;;3.50;99.90;;;;;;5054996;28;20048;-52
2022/02/25 07:08:23;;;;;;;21.13;3.83;;;3.50;99.90;;;;;;5053186;28;20049;-51
2022/02/25 07:10:49;;;;;;;21.55;4.53;;;3.50;99.90;;;;;;5054761;28;20033;-52
2022/02/25 07:13:14;;;;;;;18.98;3.40;;;3.60;99.90;;;;;;5054287;28;20119;-54
2022/02/25 07:15:41;;;;;;;21.20;3.95;;;3.70;99.90;;;;;;5053658;28;20039;-54
2022/02/25 07:18:08;;;;;;;20.58;3.88;;;3.70;99.90;;;;;;5054623;28;20048;-53
2022/02/25 07:20:35;;;;;;;19.00;3.47;;;3.70;99.90;;;;;;5035928;28;20396;-51
2022/02/25 07:23:04;;;;;;;19.77;3.53;;;3.70;99.90;;;;;;5053712;28;20059;-55
2022/02/25 07:25:30;;;;;;;25.42;3.25;;;3.70;99.90;;;;;;5053727;28;20041;-51
2022/02/25 07:27:56;;;;;;;15.00;3.00;;;3.70;99.90;;;;;;5053695;28;20047;-55
2022/02/25 07:30:24;;;;;;;23.25;3.92;;;3.70;99.90;;;;;;5053969;28;20036;-55
2022/02/25 07:32:51;;;;;;;17.40;3.17;;;3.70;99.90;;;;;;5052120;28;20440;-51
2022/02/25 07:35:17;;;;;;;16.83;3.65;;;3.80;99.90;;;;;;5052847;28;20116;-54
2022/02/25 07:37:43;;;;;;;16.70;3.85;;;3.80;99.90;;;;;;5052690;28;20131;-55
2022/02/25 07:40:12;;;;;;;23.90;4.13;;;3.90;99.90;;;;;;5053146;28;20040;-51
2022/02/25 07:42:38;;;;;;;17.77;3.78;;;3.90;99.90;;;;;;5056065;28;20444;-52
2022/02/25 07:45:05;;;;;;;22.45;3.60;;;3.90;99.90;;;;;;5053719;28;20085;-55
2022/02/25 07:47:30;;;;;;;15.77;3.35;;;4.00;99.90;;;;;;5053317;28;20045;-52
2022/02/25 07:49:56;;;;;;;21.30;3.92;;;4.00;99.90;;;;;;5032919;28;20513;-55
2022/02/25 07:52:22;;;;;;;24.30;3.80;;;4.00;99.90;;;;;;5058166;28;20036;-55
2022/02/25 07:54:49;;;;;;;16.55;3.17;;;4.10;99.90;;;;;;5056801;28;20045;-54
2022/02/25 07:57:15;;;;;;;15.07;3.78;;;4.10;99.90;;;;;;5050950;28;20037;-55
2022/02/25 07:59:42;;;;;;;14.02;4.13;;;4.20;99.90;;;;;;5053240;28;20051;-55
2022/02/25 08:02:09;;;;;;;14.90;3.47;;;4.20;99.90;;;;;;5052178;28;20501;-55
2022/02/25 08:04:34;;;;;;;22.67;3.88;;;4.20;99.90;;;;;;5035531;28;20476;-55
2022/02/25 08:07:00;;;;;;;18.60;3.65;;;4.30;99.90;;;;;;5052645;28;20124;-55
2022/02/25 08:09:26;;;;;;;23.75;3.83;;;4.40;99.90;;;;;;5052386;28;20037;-55
2022/02/25 08:11:51;;;;;;;23.25;3.45;;;4.50;99.90;;;;;;5053055;28;20045;-54
2022/02/25 08:14:17;;;;;;;21.42;3.20;;;4.60;99.90;;;;;;5052836;28;20466;-55
2022/02/25 08:16:43;;;;;;;22.85;4.65;;;4.60;99.90;;;;;;5052598;28;20402;-53
2022/02/25 08:19:09;;;;;;;21.55;3.40;;;4.70;99.90;;;;;;5053238;28;20075;-55
2022/02/25 08:21:35;;;;;;;20.88;3.47;;;4.80;99.90;;;;;;5052526;28;20441;-56
2022/02/25 08:24:01;;;;;;;24.38;3.75;;;4.90;99.90;;;;;;5052179;28;20043;-55
2022/02/25 08:26:27;;;;;;;17.33;2.85;;;4.90;99.90;;;;;;5043570;28;20033;-53
2022/02/25 08:28:53;;;;;;;14.88;2.90;;;5.00;99.90;;;;;;5058816;28;20556;-53
2022/02/25 08:31:19;;;;;;;20.33;3.10;;;5.00;99.90;;;;;;5040727;28;20029;-52
2022/02/25 08:33:45;;;;;;;16.25;2.90;;;5.10;99.90;;;;;;5037455;28;20040;-51
2022/02/25 08:36:10;;;;;;;16.35;3.78;;;5.10;99.90;;;;;;5044600;28;20396;-52
2022/02/25 08:38:36;;;;;;;17.33;3.15;;;5.20;99.90;;;;;;5052493;28;20045;-52
2022/02/25 08:41:03;;;;;;;15.88;2.70;;;5.20;99.90;;;;;;5048843;28;20059;-55
2022/02/25 08:43:30;;;;;;;21.50;3.20;;;5.30;99.90;;;;;;5046792;28;20055;-52
2022/02/25 08:45:56;;;;;;;23.08;4.30;;;5.50;99.90;;;;;;5049620;28;20047;-49
2022/02/25 08:48:21;;;;;;;20.92;3.28;;;5.60;99.90;;;;;;5046745;28;20305;-51
2022/02/25 08:50:47;;;;;;;13.60;2.80;;;5.80;99.90;;;;;;5032538;28;20410;-54
2022/02/25 08:53:13;;;;;;;21.88;3.30;;;5.90;99.90;;;;;;5048102;28;20044;-52
2022/02/25 08:55:38;;;;;;;21.40;3.25;;;6.00;99.90;;;;;;5046250;28;20085;-54
2022/02/25 08:58:04;;;;;;;14.43;2.60;;;6.00;99.90;;;;;;5047128;28;20119;-54
2022/02/25 09:00:30;;;;;;;18.38;3.53;;;6.10;99.90;;;;;;5048192;28;20083;-54
2022/02/25 09:02:56;;;;;;;18.00;3.30;;;6.10;99.90;;;;;;5049410;28;20041;-51
2022/02/25 09:05:23;;;;;;;10.02;2.22;;;6.20;99.90;;;;;;5049022;28;20512;-53
2022/02/25 09:07:50;;;;;;;17.67;2.63;;;6.40;99.90;;;;;;5047965;28;20382;-55
2022/02/25 09:10:16;;;;;;;19.20;3.05;;;6.50;99.90;;;;;;5047268;28;20041;-56
2022/02/25 09:12:43;;;;;;;17.85;2.42;;;6.70;99.90;;;;;;5049206;28;20040;-55
2022/02/25 09:15:12;;;;;;;17.38;2.30;;;6.90;99.90;;;;;;5044729;28;20033;-56
2022/02/25 09:17:39;;;;;;;19.00;2.47;;;6.90;99.90;;;;;;5040191;28;20037;-55
2022/02/25 09:20:07;;;;;;;14.95;3.38;;;6.90;99.90;;;;;;5046073;28;20045;-55
2022/02/25 09:22:33;;;;;;;18.45;3.10;;;6.80;99.90;;;;;;5037771;28;20048;-55
2022/02/25 09:24:59;;;;;;;17.63;3.25;;;6.70;99.90;;;;;;5049030;28;20041;-51
2022/02/25 09:27:27;;;;;;;13.52;3.20;;;6.50;99.90;;;;;;5048272;28;20047;-53
2022/02/25 09:29:53;;;;;;;10.57;2.63;;;6.40;99.90;;;;;;5048010;28;20045;-53
2022/02/25 09:32:19;;;;;;;15.93;2.90;;;6.30;99.90;;;;;;5049029;28;20427;-53
2022/02/25 09:34:45;;;;;;;20.50;3.17;;;6.30;99.90;;;;;;5040722;28;20072;-54
2022/02/25 09:37:11;;;;;;;12.23;2.75;;;6.20;99.90;;;;;;5047185;28;20068;-54
2022/02/25 09:39:37;;;;;;;21.13;3.83;;;6.10;99.90;;;;;;5042866;28;20039;-53
2022/02/25 09:42:05;;;;;;;12.60;2.45;;;6.00;99.90;;;;;;5041287;28;20067;-53
2022/02/25 09:44:31;;;;;;;13.88;2.47;;;5.90;99.90;;;;;;5045763;28;20071;-51
2022/02/25 09:46:56;;;;;;;19.17;3.33;;;5.80;99.90;;;;;;5041553;28;20042;-50
2022/02/25 09:49:23;;;;;;;15.70;2.72;;;5.80;99.90;;;;;;5040105;28;20555;-54
2022/02/25 09:51:50;;;;;;;16.10;2.80;;;5.70;99.90;;;;;;5017929;28;20426;-51
2022/02/25 09:54:16;;;;;;;16.15;3.22;;;5.70;99.90;;;;;;5044258;28;20079;-51
2022/02/25 09:56:47;;;;;;;27.00;4.03;;;5.80;99.90;;;;;;5042025;28;20029;-51
2022/02/25 09:59:14;;;;;;;15.73;2.60;;;6.00;99.90;;;;;;5046492;28;20065;-54
2022/02/25 10:01:39;;;;;;;11.23;2.15;;;6.20;99.90;;;;;;5048688;28;20044;-53
2022/02/25 10:04:19;;;;;;;18.23;3.03;;;6.30;99.90;;;;;;5047196;28;20041;-53
2022/02/25 10:06:44;;;;;;;16.48;2.90;;;6.50;99.90;;;;;;5047511;28;20070;-51
2022/02/25 10:09:32;;;;;;;18.58;3.38;;;6.70;99.90;;;;;;5046879;28;20044;-50
2022/02/25 10:12:11;;;;;;;22.30;3.55;;;6.90;99.90;;;;;;5039319;28;20045;-50
2022/02/25 10:14:41;;;;;;;14.23;3.00;;;7.10;99.90;;;;;;5047820;28;20111;-51
2022/02/25 10:17:22;;;;;;;23.50;3.00;;;7.20;99.90;;;;;;5046437;28;20613;-51
2022/02/25 10:20:00;;;;;;;12.18;2.60;;;7.30;99.90;;;;;;5053984;28;20123;-53
2022/02/25 10:22:30;;;;;;;27.83;3.58;;;7.40;99.90;;;;;;5038098;28;20037;-53
2022/02/25 10:25:10;;;;;;;22.00;2.75;;;7.50;99.90;;;;;;5044907;28;20045;-51
2022/02/25 10:27:39;;;;;;;18.73;3.80;;;7.60;99.90;;;;;;5039510;28;20583;-52
2022/02/25 10:30:16;;;;;;;14.23;4.05;;;7.60;99.90;;;;;;5029328;28;20083;-50
2022/02/25 10:32:44;;;;;;;15.32;3.20;;;7.70;99.90;;;;;;5048315;28;20037;-49
2022/02/25 10:35:27;;;;;;;18.17;3.30;;;7.60;99.90;;;;;;5048012;28;20806;-49
2022/02/25 10:37:56;;;;;;;16.90;2.85;;;7.60;99.90;;;;;;5040260;28;20513;-51
2022/02/25 10:40:22;;;;;;;12.65;2.67;;;7.50;99.90;;;;;;5046479;28;20428;-51
2022/02/25 10:42:48;;;;;;;16.00;2.70;;;7.40;99.90;;;;;;5048014;28;20048;-51
2022/02/25 10:45:36;;;;;;;18.27;3.10;;;7.20;99.90;;;;;;5047539;28;20421;-49
2022/02/25 10:48:14;;;;;;;15.88;3.40;;;7.20;99.90;;;;;;5040555;28;20044;-50
2022/02/25 10:50:57;;;;;;;20.55;3.92;;;7.30;99.90;;;;;;5030908;28;20040;-49
2022/02/25 10:53:29;;;;;;;16.70;2.45;;;7.50;99.90;;;;;;5047058;28;20040;-53
2022/02/25 10:56:05;;;;;;;22.05;3.22;;;7.60;99.90;;;;;;5011783;28;20045;-52
2022/02/25 10:58:40;;;;;;;21.33;2.78;;;7.70;99.90;;;;;;5044854;28;20123;-53
2022/02/25 11:01:05;;;;;;;16.38;3.35;;;7.70;99.90;;;;;;5045842;28;20060;-53
2022/02/25 11:03:31;;;;;;;19.17;3.55;;;7.60;99.90;;;;;;5040695;28;20037;-49
2022/02/25 11:05:58;;;;;;;19.38;2.85;;;7.70;99.90;;;;;;5046755;28;20477;-48
2022/02/25 11:08:23;;;;;;;17.48;2.70;;;7.70;99.90;;;;;;5045810;28;20083;-54
2022/02/25 11:10:50;;;;;;;12.55;2.53;;;7.80;99.90;;;;;;5042607;28;20057;-53
2022/02/25 11:13:17;;;;;;;14.30;2.97;;;7.60;99.90;;;;;;5031782;28;20082;-51
2022/02/25 11:15:43;;;;;;;19.73;2.47;;;7.60;99.90;;;;;;5046248;28;20033;-49
2022/02/25 11:18:11;;;;;;;23.13;3.25;;;7.40;99.90;;;;;;5045200;28;20498;-54
2022/02/25 11:20:40;;;;;;;13.98;2.85;;;7.30;99.90;;;;;;5047368;28;20149;-52
2022/02/25 11:23:08;;;;;;;17.20;2.95;;;7.30;99.90;;;;;;5050439;28;20040;-50
2022/02/25 11:25:35;;;;;;;15.48;2.85;;;7.20;99.90;;;;;;5050666;28;20044;-51
2022/02/25 11:28:02;;;;;;;12.63;2.53;;;7.30;99.90;;;;;;5029111;28;20182;-53
2022/02/25 11:30:31;;;;;;;20.30;3.80;;;7.20;99.90;;;;;;5049635;28;20056;-51
2022/02/25 11:33:10;;;;;;;21.30;3.22;;;7.20;99.90;;;;;;5049829;28;20555;-49
2022/02/25 11:35:53;;;;;;;21.25;3.42;;;7.20;99.90;;;;;;5043980;28;20033;-50
2022/02/25 11:38:31;;;;;;;20.05;2.65;;;7.10;99.90;;;;;;5042599;28;20064;-52
2022/02/25 11:41:05;;;;;;;17.75;2.83;;;7.10;99.90;;;;;;5040039;28;20099;-49
2022/02/25 11:43:44;;;;;;;19.65;2.85;;;7.10;99.90;;;;;;5037789;28;20075;-54
2022/02/25 11:46:19;;;;;;;24.30;3.47;;;7.10;99.90;;;;;;5039062;28;20051;-49
2022/02/25 11:48:50;;;;;;;15.50;3.22;;;7.00;99.90;;;;;;5040398;28;20048;-52
2022/02/25 11:51:30;;;;;;;9.90;2.15;;;6.90;99.90;;;;;;5040535;28;20500;-52
2022/02/25 11:54:20;;;;;;;5.90;0.98;;;6.80;99.90;;;;;;5038051;28;20082;-51
2022/02/25 11:57:08;;;;;;;2.13;0.70;;;6.20;99.90;;;;;;5044007;28;20041;-49
2022/02/25 11:59:33;;;;;;;1.23;0.40;;;5.70;99.90;;;;;;5043953;28;20045;-51
2022/02/25 12:02:02;;;;;;;1.88;0.52;;;5.30;99.90;;;;;;5041715;28;20094;-54
2022/02/25 12:04:32;;;;;;;3.20;0.68;;;5.10;99.90;;;;;;5043318;28;20053;-51
2022/02/25 12:07:03;;;;;;;2.17;0.93;;;4.90;99.90;;;;;;5038599;28;20120;-50
2022/02/25 12:09:59;;;;;;;4.97;0.68;;;4.90;99.90;;;;;;5041581;28;20044;-50
2022/02/25 12:12:24;;;;;;;4.40;0.60;;;4.80;99.90;;;;;;5036015;28;20037;-55
2022/02/25 12:15:00;;;;;;;5.88;0.50;;;4.80;99.90;;;;;;5039121;28;20187;-51
2022/02/25 12:17:43;;;;;;;3.05;0.70;;;4.80;99.90;;;;;;5050438;28;20036;-53
2022/02/25 12:20:10;;;;;;;3.10;0.82;;;4.90;99.90;;;;;;5036998;28;20056;-54
2022/02/25 12:23:00;;;;;;;3.70;0.63;;;4.90;99.90;;;;;;5035505;28;20098;-53
2022/02/25 12:25:41;;;;;;;4.30;0.77;;;5.00;99.90;;;;;;5041292;28;20040;-50
2022/02/25 12:28:29;;;;;;;2.58;0.68;;;5.10;99.90;;;;;;5044763;28;20057;-49
2022/02/25 12:31:00;;;;;;;5.55;1.23;;;5.30;99.90;;;;;;5041975;28;20076;-53
2022/02/25 12:33:32;;;;;;;3.65;1.00;;;5.50;99.90;;;;;;5052773;28;20044;-49
2022/02/25 12:36:04;;;;;;;4.82;1.00;;;5.60;99.90;;;;;;5052030;28;20098;-51
2022/02/25 12:38:35;;;;;;;3.83;1.03;;;5.80;99.90;;;;;;5047705;28;20040;-52
2022/02/25 12:41:16;;;;;;;4.22;0.80;;;6.00;99.90;;;;;;5042534;28;20123;-51
2022/02/25 12:43:58;;;;;;;5.72;1.05;;;6.20;99.90;;;;;;5044606;28;20367;-52
2022/02/25 12:46:33;;;;;;;5.20;0.60;;;6.30;99.90;;;;;;5043912;28;20041;-53
2022/02/25 12:48:59;;;;;;;4.80;1.00;;;6.40;99.90;;;;;;5044730;28;20040;-55
2022/02/25 12:51:25;;;;;;;3.97;1.00;;;6.50;99.90;;;;;;5043091;28;20132;-52
2022/02/25 12:54:00;;;;;;;9.00;1.30;;;6.60;99.90;;;;;;5048529;28;20049;-52
2022/02/25 12:56:37;;;;;;;8.32;2.08;;;6.70;99.90;;;;;;5046039;28;20577;-51